createdAt,value
2023-08-29T00:00:30.487Z,34.73
2023-08-29T00:01:33.091Z,35.01
2023-08-29T00:02:41.749Z,35.21
2023-08-29T00:03:43.770Z,35.02
2023-08-29T00:04:45.770Z,35.25
2023-08-29T00:05:47.657Z,35.33
2023-08-29T00:06:49.589Z,35.12
2023-08-29T00:07:51.446Z,35.15
2023-08-29T00:08:53.400Z,34.94
2023-08-29T00:09:55.879Z,34.79
2023-08-29T00:10:58.433Z,35.21
2023-08-29T00:12:01.553Z,35.04
2023-08-29T00:13:04.480Z,35.17
2023-08-29T00:14:06.886Z,35.44
2023-08-29T00:15:10.859Z,35.00
2023-08-29T00:16:17.362Z,35.02
2023-08-29T00:17:20.002Z,35.02
2023-08-29T00:18:22.629Z,35.02
2023-08-29T00:19:24.542Z,35.04
2023-08-29T00:20:26.611Z,35.34
2023-08-29T00:21:28.512Z,35.13
2023-08-29T00:22:30.737Z,35.63
2023-08-29T00:23:32.634Z,35.35
2023-08-29T00:24:34.544Z,35.68
2023-08-29T00:25:36.782Z,35.64
2023-08-29T00:26:38.701Z,35.51
2023-08-29T00:27:40.591Z,35.49
2023-08-29T00:28:42.549Z,35.56
2023-08-29T00:29:44.632Z,35.12
2023-08-29T00:30:46.556Z,35.46
2023-08-29T00:31:48.429Z,35.56
2023-08-29T00:32:50.411Z,35.46
2023-08-29T00:33:53.338Z,35.68
2023-08-29T00:34:55.238Z,35.73
2023-08-29T00:35:57.128Z,35.87
2023-08-29T00:36:59.084Z,35.63
2023-08-29T00:38:01.006Z,35.45
2023-08-29T00:39:04.789Z,35.64
2023-08-29T00:40:08.301Z,35.88
2023-08-29T00:41:12.094Z,35.83
2023-08-29T00:42:14.140Z,35.45
2023-08-29T00:43:16.218Z,35.78
2023-08-29T00:44:18.623Z,35.58
2023-08-29T00:45:21.045Z,35.96
2023-08-29T00:46:27.212Z,35.62
2023-08-29T00:47:29.714Z,36.04
2023-08-29T00:48:32.884Z,35.48
2023-08-29T00:49:34.984Z,35.80
2023-08-29T00:50:38.600Z,35.76
2023-08-29T00:51:41.479Z,36.09
2023-08-29T00:52:43.455Z,35.94
2023-08-29T00:53:45.983Z,35.64
2023-08-29T00:54:48.414Z,35.80
2023-08-29T00:55:50.714Z,35.84
2023-08-29T00:56:52.753Z,35.89
2023-08-29T00:58:00.797Z,35.91
2023-08-29T00:59:04.049Z,36.00
2023-08-29T01:00:07.929Z,35.65
2023-08-29T01:01:10.067Z,36.20
2023-08-29T01:02:12.129Z,35.96
2023-08-29T01:03:14.187Z,35.74
2023-08-29T01:04:16.709Z,36.16
2023-08-29T01:05:19.068Z,35.69
2023-08-29T01:06:21.072Z,35.94
2023-08-29T01:07:23.006Z,36.18
2023-08-29T01:08:25.440Z,36.16
2023-08-29T01:09:27.519Z,36.28
2023-08-29T01:11:01.345Z,36.09
2023-08-29T01:12:20.595Z,36.06
2023-08-29T01:13:34.957Z,35.74
2023-08-29T01:14:55.541Z,35.98
2023-08-29T01:16:04.639Z,36.20
2023-08-29T01:17:45.094Z,35.76
2023-08-29T01:18:48.105Z,35.97
2023-08-29T01:19:53.848Z,35.92
2023-08-29T01:21:15.927Z,35.79
2023-08-29T01:22:28.222Z,35.78
2023-08-29T01:23:44.107Z,36.14
2023-08-29T01:24:50.935Z,35.95
2023-08-29T01:26:15.542Z,36.19
2023-08-29T01:27:20.869Z,36.00
2023-08-29T01:28:24.127Z,36.38
2023-08-29T01:29:27.094Z,35.85
2023-08-29T01:30:29.891Z,35.96
2023-08-29T01:31:35.732Z,36.19
2023-08-29T01:32:40.126Z,36.18
2023-08-29T01:33:43.510Z,35.97
2023-08-29T01:34:45.919Z,36.29
2023-08-29T01:35:48.585Z,36.29
2023-08-29T01:36:50.959Z,36.38
2023-08-29T01:37:53.024Z,36.40
2023-08-29T01:38:55.205Z,36.05
2023-08-29T01:39:57.126Z,36.24
2023-08-29T01:40:59.111Z,36.29
2023-08-29T01:42:00.969Z,36.16
2023-08-29T01:43:02.859Z,36.12
2023-08-29T01:44:06.864Z,36.06
2023-08-29T01:45:09.408Z,36.45
2023-08-29T01:46:11.454Z,36.14
2023-08-29T01:47:13.357Z,36.43
2023-08-29T01:48:15.555Z,36.26
2023-08-29T01:49:18.113Z,36.27
2023-08-29T01:50:21.734Z,36.23
2023-08-29T01:51:23.702Z,36.29
2023-08-29T01:52:26.396Z,36.33
2023-08-29T01:53:28.358Z,36.15
2023-08-29T01:54:30.382Z,36.32
2023-08-29T01:55:33.941Z,36.34
2023-08-29T01:56:38.260Z,36.20
2023-08-29T01:57:41.391Z,36.48
2023-08-29T01:58:45.239Z,36.32
2023-08-29T01:59:48.248Z,36.51
2023-08-29T02:00:51.808Z,36.35
2023-08-29T02:01:53.868Z,36.32
2023-08-29T02:02:56.064Z,36.39
2023-08-29T02:03:58.089Z,36.33
2023-08-29T02:05:00.087Z,36.35
2023-08-29T02:06:02.030Z,36.37
2023-08-29T02:07:04.010Z,36.57
2023-08-29T02:08:06.488Z,36.35
2023-08-29T02:09:08.848Z,36.35
2023-08-29T02:10:11.775Z,36.30
2023-08-29T02:11:13.805Z,36.74
2023-08-29T02:12:15.731Z,36.54
2023-08-29T02:13:17.564Z,36.41
2023-08-29T02:14:19.523Z,36.54
2023-08-29T02:15:21.464Z,36.44
2023-08-29T02:16:25.708Z,36.56
2023-08-29T02:17:28.443Z,36.54
2023-08-29T02:18:31.050Z,36.51
2023-08-29T02:19:32.903Z,36.42
2023-08-29T02:20:37.625Z,36.58
2023-08-29T02:21:39.566Z,36.47
2023-08-29T02:22:41.526Z,36.42
2023-08-29T02:23:43.448Z,36.69
2023-08-29T02:24:48.708Z,36.49
2023-08-29T02:26:03.321Z,36.54
2023-08-29T02:27:05.984Z,36.30
2023-08-29T02:28:08.074Z,36.50
2023-08-29T02:29:10.177Z,36.17
2023-08-29T02:30:12.511Z,36.35
2023-08-29T02:31:14.845Z,36.47
2023-08-29T02:32:18.956Z,36.66
2023-08-29T02:33:20.848Z,36.33
2023-08-29T02:34:23.036Z,36.53
2023-08-29T02:35:25.222Z,36.53
2023-08-29T02:36:27.159Z,36.62
2023-08-29T02:37:29.120Z,36.58
2023-08-29T02:38:31.773Z,36.42
2023-08-29T02:39:33.706Z,36.59
2023-08-29T02:40:35.649Z,36.64
2023-08-29T02:41:38.155Z,36.64
2023-08-29T02:42:40.142Z,36.65
2023-08-29T02:43:42.120Z,36.58
2023-08-29T02:44:44.225Z,36.65
2023-08-29T02:45:46.105Z,36.84
2023-08-29T02:46:47.996Z,36.55
2023-08-29T02:47:49.961Z,36.43
2023-08-29T02:48:51.935Z,36.56
2023-08-29T02:49:53.882Z,36.83
2023-08-29T02:50:55.861Z,36.74
2023-08-29T02:51:58.083Z,36.44
2023-08-29T02:53:00.383Z,36.47
2023-08-29T02:54:03.211Z,36.77
2023-08-29T02:55:07.185Z,36.75
2023-08-29T02:56:09.159Z,36.69
2023-08-29T02:57:11.092Z,36.78
2023-08-29T02:58:13.105Z,36.60
2023-08-29T02:59:15.097Z,36.94
2023-08-29T03:00:17.611Z,36.81
2023-08-29T03:01:20.358Z,36.72
2023-08-29T03:02:22.304Z,36.71
2023-08-29T03:03:24.919Z,36.86
2023-08-29T03:04:27.487Z,36.66
2023-08-29T03:05:29.417Z,36.89
2023-08-29T03:06:31.278Z,36.61
2023-08-29T03:07:33.301Z,36.67
2023-08-29T03:08:36.058Z,36.74
2023-08-29T03:09:38.032Z,36.50
2023-08-29T03:10:40.114Z,36.70
2023-08-29T03:11:42.014Z,36.73
2023-08-29T03:12:44.177Z,36.76
2023-08-29T03:13:46.056Z,36.57
2023-08-29T03:14:47.997Z,36.81
2023-08-29T03:15:50.472Z,36.66
2023-08-29T03:16:52.363Z,36.62
2023-08-29T03:17:54.292Z,36.81
2023-08-29T03:18:56.544Z,36.82
2023-08-29T03:19:58.491Z,36.71
2023-08-29T03:21:06.416Z,36.79
2023-08-29T03:22:08.278Z,36.73
2023-08-29T03:23:10.793Z,36.83
2023-08-29T03:24:12.695Z,36.74
2023-08-29T03:25:14.605Z,36.75
2023-08-29T03:26:16.542Z,36.55
2023-08-29T03:27:18.937Z,36.67
2023-08-29T03:28:20.837Z,36.81
2023-08-29T03:29:22.782Z,36.69
2023-08-29T03:30:27.696Z,36.75
2023-08-29T03:31:29.917Z,36.73
2023-08-29T03:32:32.133Z,36.76
2023-08-29T03:33:34.153Z,36.69
2023-08-29T03:34:36.067Z,36.84
2023-08-29T03:35:38.059Z,36.69
2023-08-29T03:36:40.105Z,36.60
2023-08-29T03:37:42.118Z,36.89
2023-08-29T03:38:44.520Z,37.05
2023-08-29T03:39:46.640Z,36.58
2023-08-29T03:40:57.750Z,36.82
2023-08-29T03:41:59.680Z,36.74
2023-08-29T03:43:01.553Z,36.79
2023-08-29T03:44:04.476Z,36.74
2023-08-29T03:45:08.065Z,36.76
2023-08-29T03:46:11.133Z,36.82
2023-08-29T03:47:13.235Z,36.91
2023-08-29T03:48:28.220Z,36.91
2023-08-29T03:49:31.103Z,36.90
2023-08-29T03:50:32.975Z,36.84
2023-08-29T03:51:35.146Z,36.86
2023-08-29T03:52:37.146Z,36.99
2023-08-29T03:53:39.330Z,36.95
2023-08-29T03:54:41.275Z,36.69
2023-08-29T03:55:43.740Z,36.87
2023-08-29T03:56:45.977Z,36.87
2023-08-29T03:57:47.863Z,36.75
2023-08-29T03:58:50.375Z,36.90
2023-08-29T03:59:52.345Z,36.64
2023-08-29T04:00:55.269Z,37.01
2023-08-29T04:01:57.228Z,36.86
2023-08-29T04:03:00.948Z,36.98
2023-08-29T04:04:04.631Z,36.91
2023-08-29T04:05:19.287Z,36.86
2023-08-29T04:06:22.217Z,36.89
2023-08-29T04:07:24.188Z,36.88
2023-08-29T04:08:26.209Z,36.93
2023-08-29T04:09:28.360Z,36.96
2023-08-29T04:10:30.419Z,37.01
2023-08-29T04:11:32.303Z,36.82
2023-08-29T04:12:34.170Z,37.00
2023-08-29T04:13:36.064Z,36.99
2023-08-29T04:14:38.299Z,36.95
2023-08-29T04:15:40.236Z,36.84
2023-08-29T04:16:42.200Z,36.92
2023-08-29T04:17:44.186Z,36.97
2023-08-29T04:18:46.353Z,37.02
2023-08-29T04:19:49.078Z,37.02
2023-08-29T04:20:51.025Z,37.01
2023-08-29T04:21:52.995Z,37.04
2023-08-29T04:22:56.145Z,36.93
2023-08-29T04:23:58.267Z,37.05
2023-08-29T04:25:00.524Z,37.07
2023-08-29T04:26:04.434Z,37.03
2023-08-29T04:27:06.372Z,37.08
2023-08-29T04:28:08.741Z,36.86
2023-08-29T04:29:10.929Z,37.06
2023-08-29T04:30:12.942Z,36.95
2023-08-29T04:31:14.923Z,37.02
2023-08-29T04:32:16.872Z,36.97
2023-08-29T04:33:19.099Z,37.10
2023-08-29T04:34:24.497Z,37.16
2023-08-29T04:35:26.816Z,37.05
2023-08-29T04:36:28.909Z,37.06
2023-08-29T04:37:30.826Z,37.04
2023-08-29T04:38:33.030Z,37.19
2023-08-29T04:39:37.171Z,37.07
2023-08-29T04:40:40.886Z,37.23
2023-08-29T04:41:42.807Z,36.99
2023-08-29T04:42:48.900Z,37.04
2023-08-29T04:43:50.769Z,37.13
2023-08-29T04:44:54.797Z,37.17
2023-08-29T04:45:57.394Z,37.25
2023-08-29T04:46:59.434Z,37.42
2023-08-29T04:48:01.524Z,37.27
2023-08-29T04:49:04.872Z,37.11
2023-08-29T04:50:09.150Z,36.96
2023-08-29T04:51:11.101Z,37.19
2023-08-29T04:52:13.032Z,37.17
2023-08-29T04:53:15.027Z,37.00
2023-08-29T04:54:16.900Z,37.19
2023-08-29T04:55:18.817Z,37.14
2023-08-29T04:56:20.748Z,37.20
2023-08-29T04:57:23.089Z,37.20
2023-08-29T04:58:24.982Z,37.22
2023-08-29T04:59:27.226Z,37.24
2023-08-29T05:00:30.010Z,37.28
2023-08-29T05:01:31.982Z,37.24
2023-08-29T05:02:34.616Z,37.50
2023-08-29T05:03:36.690Z,37.30
2023-08-29T05:04:40.230Z,37.22
2023-08-29T05:05:47.638Z,37.33
2023-08-29T05:06:50.040Z,37.25
2023-08-29T05:07:52.240Z,37.25
2023-08-29T05:08:54.080Z,37.38
2023-08-29T05:09:57.186Z,37.41
2023-08-29T05:10:59.057Z,37.31
2023-08-29T05:12:00.957Z,37.34
2023-08-29T05:13:02.926Z,37.26
2023-08-29T05:14:04.953Z,37.37
2023-08-29T05:15:07.534Z,37.32
2023-08-29T05:16:09.547Z,37.32
2023-08-29T05:17:11.715Z,37.51
2023-08-29T05:18:13.684Z,37.33
2023-08-29T05:19:15.657Z,37.31
2023-08-29T05:20:17.634Z,37.40
2023-08-29T05:21:19.742Z,37.43
2023-08-29T05:22:21.722Z,37.46
2023-08-29T05:23:24.033Z,37.31
2023-08-29T05:24:25.978Z,37.21
2023-08-29T05:25:27.868Z,37.36
2023-08-29T05:26:29.808Z,37.48
2023-08-29T05:27:31.684Z,37.29
2023-08-29T05:28:33.602Z,37.41
2023-08-29T05:29:35.519Z,37.42
2023-08-29T05:30:37.512Z,37.48
2023-08-29T05:31:39.861Z,37.37
2023-08-29T05:32:41.920Z,37.30
2023-08-29T05:33:43.820Z,37.37
2023-08-29T05:34:45.752Z,37.48
2023-08-29T05:35:47.661Z,37.54
2023-08-29T05:36:50.869Z,37.38
2023-08-29T05:37:52.837Z,37.34
2023-08-29T05:38:54.774Z,37.41
2023-08-29T05:39:56.883Z,37.45
2023-08-29T05:40:58.801Z,37.36
2023-08-29T05:42:00.761Z,37.50
2023-08-29T05:43:02.746Z,37.44
2023-08-29T05:44:04.832Z,37.49
2023-08-29T05:45:07.361Z,37.55
2023-08-29T05:46:09.295Z,37.47
2023-08-29T05:47:11.443Z,37.47
2023-08-29T05:48:13.456Z,37.46
2023-08-29T05:49:16.360Z,37.56
2023-08-29T05:50:18.417Z,37.54
2023-08-29T05:51:20.309Z,37.57
2023-08-29T05:52:22.258Z,37.46
2023-08-29T05:53:24.233Z,37.48
2023-08-29T05:54:26.226Z,37.46
2023-08-29T05:55:28.109Z,37.42
2023-08-29T05:56:30.168Z,37.50
2023-08-29T05:57:32.107Z,37.70
2023-08-29T05:58:34.055Z,37.66
2023-08-29T05:59:35.971Z,37.77
2023-08-29T06:00:38.812Z,37.67
2023-08-29T06:01:40.801Z,37.63
2023-08-29T06:02:42.787Z,37.53
2023-08-29T06:03:44.817Z,37.66
2023-08-29T06:04:47.452Z,37.64
2023-08-29T06:05:50.808Z,37.72
2023-08-29T06:06:52.670Z,37.60
2023-08-29T06:07:59.423Z,37.50
2023-08-29T06:09:11.537Z,37.64
2023-08-29T06:10:13.809Z,37.72
2023-08-29T06:11:16.146Z,37.74
2023-08-29T06:12:18.090Z,37.65
2023-08-29T06:13:20.051Z,37.59
2023-08-29T06:14:22.050Z,37.72
2023-08-29T06:15:24.053Z,37.79
2023-08-29T06:16:26.044Z,37.84
2023-08-29T06:17:28.113Z,37.84
2023-08-29T06:18:30.526Z,37.58
2023-08-29T06:19:32.462Z,37.93
2023-08-29T06:20:35.462Z,37.95
2023-08-29T06:21:37.369Z,38.07
2023-08-29T06:22:39.591Z,38.05
2023-08-29T06:23:41.527Z,37.94
2023-08-29T06:24:43.647Z,38.11
2023-08-29T06:25:46.205Z,38.17
2023-08-29T06:26:48.149Z,38.04
2023-08-29T06:27:49.973Z,38.24
2023-08-29T06:28:51.855Z,38.29
2023-08-29T06:29:53.734Z,38.12
2023-08-29T06:30:55.808Z,38.13
2023-08-29T06:31:57.767Z,38.01
2023-08-29T06:32:59.685Z,38.04
2023-08-29T06:34:01.638Z,38.24
2023-08-29T06:35:04.058Z,38.31
2023-08-29T06:36:06.635Z,38.19
2023-08-29T06:37:08.634Z,38.02
2023-08-29T06:38:10.753Z,37.94
2023-08-29T06:39:12.738Z,38.16
2023-08-29T06:40:14.688Z,38.05
2023-08-29T06:41:16.603Z,38.23
2023-08-29T06:42:18.649Z,38.34
2023-08-29T06:43:20.604Z,38.23
2023-08-29T06:44:22.539Z,38.47
2023-08-29T06:45:26.361Z,38.38
2023-08-29T06:46:28.751Z,38.58
2023-08-29T06:47:30.739Z,38.26
2023-08-29T06:48:32.927Z,38.52
2023-08-29T06:49:34.850Z,38.50
2023-08-29T06:50:36.827Z,38.56
2023-08-29T06:51:39.264Z,38.50
2023-08-29T06:52:41.173Z,38.51
2023-08-29T06:53:43.188Z,38.54
2023-08-29T06:54:45.157Z,38.60
2023-08-29T06:55:48.106Z,38.28
2023-08-29T06:56:52.651Z,38.68
2023-08-29T06:57:54.636Z,38.54
2023-08-29T06:58:56.539Z,38.73
2023-08-29T06:59:58.488Z,38.75
2023-08-29T07:01:00.570Z,38.72
2023-08-29T07:02:02.498Z,38.72
2023-08-29T07:03:05.487Z,38.62
2023-08-29T07:04:09.425Z,38.66
2023-08-29T07:05:11.411Z,38.69
2023-08-29T07:06:13.312Z,38.64
2023-08-29T07:07:15.892Z,38.57
2023-08-29T07:08:17.825Z,38.59
2023-08-29T07:09:19.713Z,38.71
2023-08-29T07:10:21.681Z,38.66
2023-08-29T07:11:23.677Z,38.84
2023-08-29T07:12:26.098Z,38.60
2023-08-29T07:13:28.012Z,38.65
2023-08-29T07:14:29.995Z,38.51
2023-08-29T07:15:32.129Z,38.58
2023-08-29T07:16:34.188Z,38.33
2023-08-29T07:17:36.818Z,38.52
2023-08-29T07:18:38.764Z,38.54
2023-08-29T07:19:40.768Z,38.43
2023-08-29T07:20:43.116Z,38.54
2023-08-29T07:21:45.585Z,38.44
2023-08-29T07:22:47.563Z,38.43
2023-08-29T07:23:49.461Z,38.51
2023-08-29T07:24:52.769Z,38.61
2023-08-29T07:25:54.978Z,38.46
2023-08-29T07:26:57.769Z,38.42
2023-08-29T07:28:00.261Z,38.66
2023-08-29T07:29:02.291Z,38.63
2023-08-29T07:30:05.544Z,38.69
2023-08-29T07:31:07.910Z,38.72
2023-08-29T07:32:09.981Z,38.53
2023-08-29T07:33:12.951Z,38.65
2023-08-29T07:34:16.845Z,38.63
2023-08-29T07:35:18.751Z,38.73
2023-08-29T07:36:21.836Z,38.67
2023-08-29T07:37:26.730Z,38.75
2023-08-29T07:38:28.652Z,38.76
2023-08-29T07:39:30.918Z,39.00
2023-08-29T07:40:34.843Z,38.90
2023-08-29T07:41:36.725Z,38.88
2023-08-29T07:42:38.732Z,38.79
2023-08-29T07:43:40.627Z,39.06
2023-08-29T07:44:42.646Z,38.71
2023-08-29T07:45:46.192Z,38.66
2023-08-29T07:47:07.786Z,38.78
2023-08-29T07:48:10.642Z,38.74
2023-08-29T07:49:21.380Z,38.77
2023-08-29T07:50:23.407Z,38.45
2023-08-29T07:51:25.370Z,39.02
2023-08-29T07:52:27.436Z,38.79
2023-08-29T07:53:29.312Z,38.90
2023-08-29T07:54:31.305Z,38.87
2023-08-29T07:55:33.424Z,38.92
2023-08-29T07:56:35.320Z,39.03
2023-08-29T07:57:37.246Z,39.16
2023-08-29T07:58:39.149Z,39.08
2023-08-29T07:59:41.327Z,39.08
2023-08-29T08:00:43.995Z,39.09
2023-08-29T08:01:47.877Z,38.94
2023-08-29T08:02:49.931Z,39.04
2023-08-29T08:03:51.940Z,39.14
2023-08-29T08:04:53.834Z,39.12
2023-08-29T08:05:56.406Z,39.15
2023-08-29T08:06:58.444Z,39.21
2023-08-29T08:08:01.346Z,39.13
2023-08-29T08:09:05.733Z,39.15
2023-08-29T08:10:08.973Z,39.20
2023-08-29T08:11:10.974Z,39.11
2023-08-29T08:12:12.868Z,39.20
2023-08-29T08:13:14.768Z,39.20
2023-08-29T08:14:18.463Z,39.22
2023-08-29T08:15:21.708Z,39.34
2023-08-29T08:16:23.812Z,39.23
2023-08-29T08:17:25.937Z,39.26
2023-08-29T08:18:27.906Z,39.30
2023-08-29T08:19:30.601Z,39.28
2023-08-29T08:20:32.585Z,39.21
2023-08-29T08:21:34.607Z,39.07
2023-08-29T08:22:38.930Z,39.28
2023-08-29T08:23:40.974Z,39.32
2023-08-29T08:24:43.357Z,39.12
2023-08-29T08:25:45.619Z,39.09
2023-08-29T08:26:47.587Z,39.14
2023-08-29T08:27:49.496Z,39.18
2023-08-29T08:28:51.457Z,39.18
2023-08-29T08:29:53.417Z,39.11
2023-08-29T08:30:55.360Z,39.00
2023-08-29T08:31:57.362Z,39.26
2023-08-29T08:32:59.319Z,39.33
2023-08-29T08:34:01.800Z,39.07
2023-08-29T08:35:08.429Z,39.11
2023-08-29T08:36:10.608Z,39.41
2023-08-29T08:37:12.571Z,39.50
2023-08-29T08:38:14.587Z,39.58
2023-08-29T08:39:16.517Z,39.50
2023-08-29T08:40:18.524Z,39.65
2023-08-29T08:41:20.608Z,39.67
2023-08-29T08:42:22.999Z,39.67
2023-08-29T08:43:25.831Z,39.76
2023-08-29T08:44:28.131Z,39.84
2023-08-29T08:45:30.493Z,39.95
2023-08-29T08:46:35.337Z,39.45
2023-08-29T08:47:38.827Z,39.48
2023-08-29T08:48:40.959Z,39.42
2023-08-29T08:49:44.016Z,39.65
2023-08-29T08:50:48.400Z,39.70
2023-08-29T08:51:50.319Z,39.41
2023-08-29T08:52:53.317Z,39.67
2023-08-29T08:53:55.613Z,39.45
2023-08-29T08:54:57.631Z,39.49
2023-08-29T08:56:00.823Z,39.42
2023-08-29T08:57:03.749Z,39.62
2023-08-29T08:58:06.636Z,39.46
2023-08-29T08:59:10.415Z,39.41
2023-08-29T09:00:13.191Z,39.39
2023-08-29T09:01:15.282Z,39.17
2023-08-29T09:02:19.703Z,39.52
2023-08-29T09:03:21.706Z,39.49
2023-08-29T09:04:25.147Z,39.53
2023-08-29T09:05:27.127Z,39.49
2023-08-29T09:06:30.159Z,39.75
2023-08-29T09:07:32.069Z,39.61
2023-08-29T09:08:35.348Z,39.63
2023-08-29T09:09:37.298Z,39.56
2023-08-29T09:10:40.791Z,39.81
2023-08-29T09:11:53.122Z,39.54
2023-08-29T09:12:57.871Z,39.78
2023-08-29T09:14:00.575Z,39.81
2023-08-29T09:15:06.241Z,39.77
2023-08-29T09:16:08.790Z,39.88
2023-08-29T09:17:11.944Z,39.75
2023-08-29T09:18:16.388Z,39.90
2023-08-29T09:19:20.735Z,39.86
2023-08-29T09:20:29.693Z,39.78
2023-08-29T09:21:32.672Z,39.87
2023-08-29T09:22:35.782Z,40.07
2023-08-29T09:23:39.117Z,40.00
2023-08-29T09:24:41.038Z,39.89
2023-08-29T09:25:42.962Z,39.76
2023-08-29T09:26:44.925Z,39.96
2023-08-29T09:27:50.624Z,39.86
2023-08-29T09:28:52.516Z,39.96
2023-08-29T09:29:54.458Z,39.61
2023-08-29T09:31:10.950Z,39.85
2023-08-29T09:32:17.025Z,39.76
2023-08-29T09:33:22.981Z,39.84
2023-08-29T09:34:24.864Z,39.87
2023-08-29T09:35:27.856Z,39.88
2023-08-29T09:36:29.829Z,39.74
2023-08-29T09:37:31.776Z,39.88
2023-08-29T09:38:37.290Z,39.85
2023-08-29T09:39:39.794Z,39.77
2023-08-29T09:40:53.056Z,39.55
2023-08-29T09:42:11.459Z,39.43
2023-08-29T09:43:17.035Z,39.85
2023-08-29T09:44:18.995Z,39.59
2023-08-29T09:45:21.107Z,39.76
2023-08-29T09:46:27.085Z,39.75
2023-08-29T09:47:30.470Z,39.59
2023-08-29T09:48:32.986Z,39.26
2023-08-29T09:49:51.121Z,39.49
2023-08-29T09:50:53.396Z,39.85
2023-08-29T09:52:02.167Z,39.56
2023-08-29T09:53:05.104Z,39.59
2023-08-29T09:54:12.061Z,39.46
2023-08-29T09:55:18.233Z,39.32
2023-08-29T09:56:25.445Z,39.28
2023-08-29T09:57:32.471Z,39.36
2023-08-29T09:58:36.512Z,39.22
2023-08-29T09:59:42.525Z,39.36
2023-08-29T10:00:45.111Z,39.20
2023-08-29T10:01:50.634Z,39.21
2023-08-29T10:03:01.190Z,39.23
2023-08-29T10:04:07.949Z,39.14
2023-08-29T10:05:11.840Z,39.43
2023-08-29T10:06:19.050Z,39.46
2023-08-29T10:07:30.051Z,39.09
2023-08-29T10:08:44.226Z,39.03
2023-08-29T10:09:46.713Z,39.41
2023-08-29T10:10:49.577Z,39.15
2023-08-29T10:11:54.639Z,39.25
2023-08-29T10:13:00.151Z,39.37
2023-08-29T10:14:05.416Z,39.31
2023-08-29T10:15:09.317Z,39.55
2023-08-29T10:16:15.315Z,39.36
2023-08-29T10:17:29.782Z,39.24
2023-08-29T10:18:35.752Z,39.32
2023-08-29T10:19:39.515Z,39.36
2023-08-29T10:20:45.126Z,39.17
2023-08-29T10:21:50.603Z,39.46
2023-08-29T10:22:54.148Z,39.19
2023-08-29T10:23:56.812Z,39.15
2023-08-29T10:25:02.032Z,39.32
2023-08-29T10:26:04.365Z,39.40
2023-08-29T10:27:06.555Z,39.15
2023-08-29T10:28:12.053Z,39.31
2023-08-29T10:29:13.998Z,39.49
2023-08-29T10:30:16.386Z,39.51
2023-08-29T10:31:20.828Z,39.32
2023-08-29T10:32:27.725Z,39.55
2023-08-29T10:33:30.066Z,39.31
2023-08-29T10:34:32.184Z,39.16
2023-08-29T10:35:35.041Z,39.31
2023-08-29T10:36:39.818Z,39.53
2023-08-29T10:37:41.777Z,39.06
2023-08-29T10:38:49.189Z,39.44
2023-08-29T10:39:53.775Z,39.08
2023-08-29T10:41:07.958Z,39.27
2023-08-29T10:42:10.065Z,39.22
2023-08-29T10:43:19.501Z,39.06
2023-08-29T10:44:33.324Z,39.29
2023-08-29T10:45:53.193Z,39.15
2023-08-29T10:46:55.604Z,39.33
2023-08-29T10:47:57.653Z,38.78
2023-08-29T10:48:59.939Z,39.08
2023-08-29T10:50:06.187Z,38.90
2023-08-29T10:51:12.463Z,39.07
2023-08-29T10:52:15.342Z,39.15
2023-08-29T10:53:20.755Z,38.94
2023-08-29T10:54:30.887Z,39.21
2023-08-29T10:55:35.807Z,39.04
2023-08-29T10:56:44.001Z,39.22
2023-08-29T10:57:46.052Z,38.94
2023-08-29T10:58:52.368Z,38.97
2023-08-29T10:59:54.982Z,38.88
2023-08-29T11:00:58.216Z,39.12
2023-08-29T11:02:28.031Z,39.09
2023-08-29T11:03:40.795Z,39.02
2023-08-29T11:04:55.973Z,39.17
2023-08-29T11:05:58.890Z,39.24
2023-08-29T11:07:02.133Z,38.83
2023-08-29T11:08:23.208Z,39.02
2023-08-29T11:09:26.403Z,38.93
2023-08-29T11:10:28.363Z,38.68
2023-08-29T11:11:30.316Z,38.84
2023-08-29T11:12:32.185Z,39.01
2023-08-29T11:13:34.910Z,38.88
2023-08-29T11:14:57.142Z,38.86
2023-08-29T11:15:59.581Z,39.02
2023-08-29T11:17:14.059Z,39.11
2023-08-29T11:18:25.445Z,39.25
2023-08-29T11:19:27.696Z,39.17
2023-08-29T11:20:33.314Z,39.38
2023-08-29T11:21:35.288Z,39.54
2023-08-29T11:22:38.915Z,39.19
2023-08-29T11:23:43.500Z,39.36
2023-08-29T11:24:45.395Z,39.48
2023-08-29T11:25:51.643Z,39.66
2023-08-29T11:26:58.423Z,39.47
2023-08-29T11:28:01.261Z,39.34
2023-08-29T11:29:06.840Z,39.45
2023-08-29T11:30:24.905Z,39.35
2023-08-29T11:31:31.386Z,38.96
2023-08-29T11:32:34.190Z,39.26
2023-08-29T11:33:38.393Z,39.58
2023-08-29T11:34:40.402Z,39.44
2023-08-29T11:35:43.735Z,39.62
2023-08-29T11:36:52.672Z,39.52
2023-08-29T11:37:55.480Z,39.70
2023-08-29T11:39:00.889Z,39.81
2023-08-29T11:40:12.370Z,39.67
2023-08-29T11:41:36.117Z,39.82
2023-08-29T11:43:38.128Z,39.49
2023-08-29T11:45:02.180Z,39.69
2023-08-29T11:45:48.349Z,39.66
2023-08-29T11:46:52.042Z,39.75
2023-08-29T11:47:54.325Z,39.81
2023-08-29T11:48:56.185Z,39.60
2023-08-29T11:49:58.019Z,39.79
2023-08-29T11:51:09.540Z,39.79
2023-08-29T11:52:11.689Z,39.83
2023-08-29T11:53:23.347Z,39.61
2023-08-29T11:54:48.513Z,39.20
2023-08-29T11:55:51.919Z,39.86
2023-08-29T11:56:57.178Z,39.83
2023-08-29T11:57:59.649Z,39.69
2023-08-29T11:59:02.032Z,39.96
2023-08-29T12:00:09.337Z,40.10
2023-08-29T12:01:12.099Z,39.88
2023-08-29T12:02:19.822Z,40.15
2023-08-29T12:03:24.737Z,39.89
2023-08-29T12:04:28.510Z,39.74
2023-08-29T12:05:32.423Z,39.81
2023-08-29T12:06:34.336Z,39.74
2023-08-29T12:07:36.266Z,39.83
2023-08-29T12:08:44.156Z,39.50
2023-08-29T12:09:48.401Z,39.90
2023-08-29T12:10:54.359Z,39.92
2023-08-29T12:11:56.977Z,39.48
2023-08-29T12:13:12.548Z,39.37
2023-08-29T12:14:14.465Z,39.25
2023-08-29T12:15:24.225Z,39.92
2023-08-29T12:16:32.991Z,39.17
2023-08-29T12:17:48.587Z,39.43
2023-08-29T12:18:51.569Z,39.32
2023-08-29T12:19:54.994Z,39.23
2023-08-29T12:21:18.343Z,39.38
2023-08-29T12:22:31.350Z,39.14
2023-08-29T12:23:33.228Z,39.64
2023-08-29T12:24:35.133Z,39.64
2023-08-29T12:25:37.018Z,39.87
2023-08-29T12:26:39.175Z,39.77
2023-08-29T12:27:41.227Z,39.54
2023-08-29T12:28:43.226Z,39.93
2023-08-29T12:29:45.077Z,39.52
2023-08-29T12:30:47.126Z,39.43
2023-08-29T12:31:49.336Z,39.84
2023-08-29T12:32:51.264Z,39.87
2023-08-29T12:33:53.453Z,39.44
2023-08-29T12:34:58.991Z,39.50
2023-08-29T12:36:01.943Z,39.83
2023-08-29T12:37:04.336Z,39.72
2023-08-29T12:38:06.471Z,39.46
2023-08-29T12:39:09.834Z,39.61
2023-08-29T12:40:13.725Z,39.64
2023-08-29T12:41:18.207Z,39.47
2023-08-29T12:42:20.209Z,39.80
2023-08-29T12:43:22.313Z,39.46
2023-08-29T12:44:24.253Z,39.69
2023-08-29T12:45:26.228Z,39.44
2023-08-29T12:46:28.094Z,39.38
2023-08-29T12:47:30.052Z,39.78
2023-08-29T12:48:31.910Z,39.51
2023-08-29T12:49:34.188Z,39.48
2023-08-29T12:50:36.457Z,39.67
2023-08-29T12:51:38.371Z,39.59
2023-08-29T12:52:40.391Z,39.89
2023-08-29T12:53:45.130Z,39.41
2023-08-29T12:54:47.083Z,39.76
2023-08-29T12:55:49.075Z,39.32
2023-08-29T12:56:50.931Z,39.63
2023-08-29T12:57:53.365Z,39.52
2023-08-29T12:58:55.329Z,39.63
2023-08-29T12:59:57.383Z,40.03
2023-08-29T13:00:59.268Z,39.52
2023-08-29T13:02:01.191Z,39.80
2023-08-29T13:03:03.265Z,39.40
2023-08-29T13:04:05.506Z,39.48
2023-08-29T13:05:07.798Z,39.34
2023-08-29T13:06:09.751Z,39.41
2023-08-29T13:07:11.636Z,39.40
2023-08-29T13:08:16.666Z,39.58
2023-08-29T13:09:34.782Z,39.61
2023-08-29T13:10:40.124Z,39.58
2023-08-29T13:11:42.054Z,39.40
2023-08-29T13:12:44.020Z,39.44
2023-08-29T13:13:46.898Z,39.58
2023-08-29T13:14:48.800Z,39.58
2023-08-29T13:15:51.816Z,39.31
2023-08-29T13:16:55.689Z,39.18
2023-08-29T13:17:57.629Z,39.32
2023-08-29T13:18:59.775Z,39.15
2023-08-29T13:20:01.779Z,39.07
2023-08-29T13:21:04.259Z,39.48
2023-08-29T13:22:07.535Z,39.11
2023-08-29T13:23:11.130Z,39.28
2023-08-29T13:24:13.047Z,39.05
2023-08-29T13:25:16.252Z,39.07
2023-08-29T13:26:20.541Z,39.20
2023-08-29T13:27:22.560Z,39.41
2023-08-29T13:28:24.481Z,39.55
2023-08-29T13:29:28.245Z,39.27
2023-08-29T13:30:30.582Z,39.38
2023-08-29T13:31:32.535Z,39.44
2023-08-29T13:32:35.380Z,39.21
2023-08-29T13:33:37.484Z,39.49
2023-08-29T13:34:39.424Z,39.22
2023-08-29T13:35:41.295Z,39.16
2023-08-29T13:36:43.223Z,39.35
2023-08-29T13:37:46.495Z,39.34
2023-08-29T13:38:48.523Z,39.37
2023-08-29T13:39:57.410Z,39.88
2023-08-29T13:40:59.440Z,39.20